Time;durP1;ratioP1;P1;durP2;ratioP2;P2;SDS_P1;SDS_P2;PMS_P1;PMS_P2;Temp;Humidity;BMP_temperature;BMP_pressure;BME280_temperature;BME280_humidity;BME280_pressure;Samples;Min_cycle;Max_cycle;Signal;HPM_P1;HPM_P2
2023/06/04 00:01:28;;;;;;;2.42;2.22;;;;;;;;;;4984972;28;99864;-76
2023/06/04 00:03:54;;;;;;;2.85;1.80;;;;;;;;;;4985490;28;99802;-75
2023/06/04 00:06:21;;;;;;;5.00;1.90;;;;;;;;;;4984709;28;100427;-75
2023/06/04 00:08:48;;;;;;;5.68;3.20;;;;;;;;;;4980173;28;99095;-76
2023/06/04 00:11:15;;;;;;;4.03;1.98;;;;;;;;;;4988997;28;100119;-76
2023/06/04 00:13:41;;;;;;;3.60;1.95;;;;;;;;;;4984975;28;98943;-76
2023/06/04 00:16:08;;;;;;;2.17;1.95;;;;;;;;;;4985614;28;99971;-76
2023/06/04 00:18:34;;;;;;;6.43;1.88;;;;;;;;;;4986023;28;99691;-75
2023/06/04 00:21:01;;;;;;;2.08;1.80;;;;;;;;;;4985029;28;99924;-76
2023/06/04 00:23:27;;;;;;;2.15;1.83;;;;;;;;;;4984961;28;99343;-77
2023/06/04 00:25:54;;;;;;;3.65;1.92;;;;;;;;;;4985173;28;100812;-76
2023/06/04 00:28:21;;;;;;;1.83;1.70;;;;;;;;;;4984650;28;100042;-77
2023/06/04 00:30:48;;;;;;;4.65;1.90;;;;;;;;;;4966371;28;99742;-75
2023/06/04 00:33:14;;;;;;;3.28;2.15;;;;;;;;;;4987066;28;99787;-76
2023/06/04 00:35:41;;;;;;;1.80;1.70;;;;;;;;;;4984955;28;98788;-76
2023/06/04 00:38:08;;;;;;;12.07;1.92;;;;;;;;;;4986478;28;99189;-76
2023/06/04 00:40:34;;;;;;;3.70;2.15;;;;;;;;;;4970844;28;100229;-76
2023/06/04 00:43:00;;;;;;;2.00;1.90;;;;;;;;;;4972472;28;99973;-77
2023/06/04 00:45:30;;;;;;;5.38;2.05;;;;;;;;;;4984497;28;102169;-77
2023/06/04 00:47:57;;;;;;;2.13;1.80;;;;;;;;;;4987818;28;98968;-77
2023/06/04 00:50:27;;;;;;;2.25;1.73;;;;;;;;;;4988955;28;99342;-77
2023/06/04 00:52:54;;;;;;;6.38;2.45;;;;;;;;;;4992892;28;98987;-77
2023/06/04 00:55:20;;;;;;;2.10;2.00;;;;;;;;;;4987787;28;98952;-77
2023/06/04 00:57:47;;;;;;;2.42;1.65;;;;;;;;;;4985483;28;99136;-76
2023/06/04 01:00:14;;;;;;;4.53;2.28;;;;;;;;;;4985330;28;98831;-76
2023/06/04 01:02:43;;;;;;;1.88;1.73;;;;;;;;;;4987193;28;98996;-77
2023/06/04 01:05:33;;;;;;;2.55;2.15;;;;;;;;;;4987275;28;100630;-76
2023/06/04 01:08:01;;;;;;;4.53;2.33;;;;;;;;;;4987950;28;100149;-77
2023/06/04 01:10:27;;;;;;;2.42;1.70;;;;;;;;;;4975515;28;99357;-77
2023/06/04 01:12:53;;;;;;;2.47;2.05;;;;;;;;;;4967340;28;102185;-76
2023/06/04 01:15:20;;;;;;;4.00;2.20;;;;;;;;;;4970585;28;100187;-76
2023/06/04 01:17:51;;;;;;;2.47;1.90;;;;;;;;;;4978996;28;101812;-76
2023/06/04 01:20:24;;;;;;;3.58;2.10;;;;;;;;;;4988050;28;98771;-76
2023/06/04 01:22:51;;;;;;;2.00;1.88;;;;;;;;;;4987803;28;100358;-76
2023/06/04 01:25:23;;;;;;;1.98;1.70;;;;;;;;;;4988094;28;99325;-76
2023/06/04 01:27:52;;;;;;;2.65;2.00;;;;;;;;;;4988330;28;98677;-76
2023/06/04 01:30:23;;;;;;;3.22;1.80;;;;;;;;;;4987153;28;99809;-76
2023/06/04 01:32:50;;;;;;;2.90;2.08;;;;;;;;;;4976396;28;98674;-76
2023/06/04 01:35:16;;;;;;;9.93;2.58;;;;;;;;;;4981939;28;99978;-77
2023/06/04 01:37:43;;;;;;;5.78;2.13;;;;;;;;;;4991649;28;98870;-76
2023/06/04 01:40:10;;;;;;;2.92;2.00;;;;;;;;;;4975523;28;99397;-76
2023/06/04 01:42:36;;;;;;;2.95;2.38;;;;;;;;;;4967939;28;100961;-77
2023/06/04 01:45:03;;;;;;;2.60;2.33;;;;;;;;;;4973930;28;99247;-77
2023/06/04 01:47:30;;;;;;;2.28;2.17;;;;;;;;;;4987363;28;98896;-76
2023/06/04 01:49:56;;;;;;;2.03;1.90;;;;;;;;;;4988089;28;99362;-76
2023/06/04 01:52:23;;;;;;;3.63;1.90;;;;;;;;;;4986625;28;100372;-75
2023/06/04 01:54:52;;;;;;;2.17;1.98;;;;;;;;;;4988064;28;99449;-76
2023/06/04 01:57:20;;;;;;;4.97;2.15;;;;;;;;;;4986535;28;101843;-76
2023/06/04 01:59:46;;;;;;;2.33;1.92;;;;;;;;;;4989122;28;101986;-76
2023/06/04 02:02:13;;;;;;;5.88;2.17;;;;;;;;;;4987913;28;99981;-77
2023/06/04 02:04:41;;;;;;;5.50;2.10;;;;;;;;;;4987022;28;100304;-76
2023/06/04 02:07:08;;;;;;;2.65;2.17;;;;;;;;;;4986666;28;101543;-76
2023/06/04 02:09:35;;;;;;;4.28;1.85;;;;;;;;;;4987194;28;99498;-76
2023/06/04 02:12:01;;;;;;;1.88;1.77;;;;;;;;;;4986470;28;100537;-75
2023/06/04 02:14:28;;;;;;;2.30;2.10;;;;;;;;;;4985834;28;100046;-76
2023/06/04 02:16:57;;;;;;;2.30;2.20;;;;;;;;;;4986187;28;101309;-77
2023/06/04 02:19:25;;;;;;;12.77;2.85;;;;;;;;;;4984963;28;100213;-76
2023/06/04 02:21:56;;;;;;;2.47;2.28;;;;;;;;;;4989947;28;99406;-77
2023/06/04 02:24:23;;;;;;;2.88;2.50;;;;;;;;;;4987476;28;99020;-77
2023/06/04 02:26:49;;;;;;;2.47;2.28;;;;;;;;;;4986494;28;98983;-78
2023/06/04 02:29:15;;;;;;;2.08;1.90;;;;;;;;;;4986726;28;99316;-76
2023/06/04 02:31:42;;;;;;;3.75;2.30;;;;;;;;;;4987555;28;99580;-77
2023/06/04 02:34:08;;;;;;;3.50;2.25;;;;;;;;;;4985802;28;101953;-76
2023/06/04 02:36:35;;;;;;;2.55;2.35;;;;;;;;;;4998188;28;99866;-76
2023/06/04 02:39:02;;;;;;;4.63;2.38;;;;;;;;;;4997622;28;101454;-77
2023/06/04 02:41:29;;;;;;;4.10;2.50;;;;;;;;;;4990391;28;98956;-75
2023/06/04 02:43:56;;;;;;;2.22;2.13;;;;;;;;;;4969261;28;101179;-76
2023/06/04 02:46:23;;;;;;;2.50;1.73;;;;;;;;;;4966364;28;100330;-76
2023/06/04 02:48:50;;;;;;;4.32;2.65;;;;;;;;;;4965054;28;100797;-76
2023/06/04 02:51:17;;;;;;;5.80;3.75;;;;;;;;;;4966950;28;99083;-75
2023/06/04 02:53:45;;;;;;;3.17;2.42;;;;;;;;;;4965530;28;101165;-75
2023/06/04 02:56:12;;;;;;;5.00;2.35;;;;;;;;;;4967331;28;101121;-76
2023/06/04 02:58:49;;;;;;;2.53;2.20;;;;;;;;;;4968917;28;99259;-76
2023/06/04 03:01:19;;;;;;;4.40;2.15;;;;;;;;;;4984479;28;102318;-76
2023/06/04 03:03:46;;;;;;;6.40;2.78;;;;;;;;;;4990096;28;98843;-76
2023/06/04 03:06:14;;;;;;;3.10;2.40;;;;;;;;;;4985387;28;100184;-76
2023/06/04 03:08:41;;;;;;;2.33;2.13;;;;;;;;;;4985648;28;98726;-76
2023/06/04 03:11:07;;;;;;;3.38;2.33;;;;;;;;;;4987435;28;98402;-76
2023/06/04 03:13:34;;;;;;;3.95;2.60;;;;;;;;;;4985292;28;99188;-78
2023/06/04 03:16:01;;;;;;;2.63;2.10;;;;;;;;;;4985832;28;99381;-77
2023/06/04 03:18:29;;;;;;;8.30;2.28;;;;;;;;;;4985713;28;99807;-76
2023/06/04 03:20:56;;;;;;;7.70;2.70;;;;;;;;;;4985165;28;101296;-76
2023/06/04 03:23:23;;;;;;;5.75;2.83;;;;;;;;;;4983273;28;101149;-76
2023/06/04 03:25:50;;;;;;;6.25;2.58;;;;;;;;;;4989792;28;99028;-76
2023/06/04 03:28:16;;;;;;;3.80;2.17;;;;;;;;;;4986162;28;101661;-77
2023/06/04 03:30:45;;;;;;;8.07;2.40;;;;;;;;;;4984792;28;101293;-77
2023/06/04 03:33:11;;;;;;;4.10;2.60;;;;;;;;;;4984913;28;102055;-76
2023/06/04 03:35:40;;;;;;;3.58;2.78;;;;;;;;;;4986359;28;100875;-76
2023/06/04 03:38:10;;;;;;;4.72;2.30;;;;;;;;;;4986361;28;100122;-78
2023/06/04 03:40:37;;;;;;;3.70;2.47;;;;;;;;;;4983413;28;101257;-76
2023/06/04 03:43:06;;;;;;;2.63;2.28;;;;;;;;;;4983485;28;99824;-77
2023/06/04 03:45:32;;;;;;;4.32;2.70;;;;;;;;;;4984135;28;101668;-76
2023/06/04 03:47:58;;;;;;;5.10;2.40;;;;;;;;;;4989573;28;98935;-76
2023/06/04 03:50:26;;;;;;;3.42;2.40;;;;;;;;;;4984594;28;99046;-76
2023/06/04 03:52:54;;;;;;;5.97;2.63;;;;;;;;;;4984945;28;100628;-77
2023/06/04 03:55:24;;;;;;;7.05;3.00;;;;;;;;;;4984511;28;101067;-76
2023/06/04 03:57:51;;;;;;;5.38;2.63;;;;;;;;;;4983523;28;99320;-76
2023/06/04 04:00:20;;;;;;;4.45;3.13;;;;;;;;;;4984839;28;100887;-77
2023/06/04 04:02:49;;;;;;;4.72;2.70;;;;;;;;;;4984672;28;99301;-77
2023/06/04 04:05:23;;;;;;;4.35;2.65;;;;;;;;;;4983375;28;101719;-76
2023/06/04 04:07:50;;;;;;;5.45;3.47;;;;;;;;;;4983969;28;101665;-77
2023/06/04 04:10:21;;;;;;;4.25;2.92;;;;;;;;;;4987332;28;101535;-76
2023/06/04 04:12:47;;;;;;;8.50;3.15;;;;;;;;;;4966401;28;100918;-76
2023/06/04 04:15:16;;;;;;;5.55;2.70;;;;;;;;;;4964316;28;99003;-76
2023/06/04 04:17:43;;;;;;;3.80;2.97;;;;;;;;;;4964497;28;100194;-76
2023/06/04 04:20:10;;;;;;;4.72;4.03;;;;;;;;;;4964086;28;100968;-77
2023/06/04 04:22:43;;;;;;;4.85;3.05;;;;;;;;;;4965375;28;101018;-75
2023/06/04 04:25:12;;;;;;;3.28;2.97;;;;;;;;;;4979327;28;100884;-76
2023/06/04 04:27:40;;;;;;;4.40;2.83;;;;;;;;;;4985560;28;100528;-79
2023/06/04 04:30:12;;;;;;;4.47;2.70;;;;;;;;;;4984451;28;98945;-78
2023/06/04 04:32:48;;;;;;;4.55;2.90;;;;;;;;;;4986389;28;99998;-77
2023/06/04 04:35:20;;;;;;;7.72;3.05;;;;;;;;;;4984601;28;101703;-76
2023/06/04 04:37:47;;;;;;;6.60;2.90;;;;;;;;;;4987830;28;100580;-77
2023/06/04 04:40:16;;;;;;;5.97;2.88;;;;;;;;;;4986820;28;99007;-75
2023/06/04 04:42:46;;;;;;;4.22;3.05;;;;;;;;;;4987654;28;101020;-78
2023/06/04 04:45:14;;;;;;;4.93;3.33;;;;;;;;;;4987799;28;102246;-77
2023/06/04 04:47:41;;;;;;;5.35;2.85;;;;;;;;;;4987026;28;101559;-77
2023/06/04 04:50:08;;;;;;;7.03;3.20;;;;;;;;;;4989611;28;98538;-78
2023/06/04 04:52:35;;;;;;;7.40;3.17;;;;;;;;;;4986883;28;99482;-77
2023/06/04 04:55:01;;;;;;;4.15;3.03;;;;;;;;;;4990005;28;99626;-78
2023/06/04 04:57:31;;;;;;;12.88;3.20;;;;;;;;;;4986412;28;101929;-77
2023/06/04 04:59:59;;;;;;;8.55;2.92;;;;;;;;;;4987440;28;101904;-76
2023/06/04 05:02:26;;;;;;;6.88;3.10;;;;;;;;;;4986410;28;100883;-77
2023/06/04 05:04:53;;;;;;;4.45;2.75;;;;;;;;;;4987398;28;101729;-76
2023/06/04 05:07:21;;;;;;;6.88;3.17;;;;;;;;;;4986983;28;98924;-78
2023/06/04 05:09:48;;;;;;;5.43;3.25;;;;;;;;;;4987021;28;101613;-77
2023/06/04 05:12:14;;;;;;;7.28;3.78;;;;;;;;;;4987904;28;100203;-77
2023/06/04 05:14:41;;;;;;;6.80;2.90;;;;;;;;;;4989902;28;102166;-78
2023/06/04 05:17:12;;;;;;;5.22;3.05;;;;;;;;;;4987813;28;101613;-77
2023/06/04 05:19:42;;;;;;;5.80;3.28;;;;;;;;;;4988694;28;99989;-76
2023/06/04 05:22:09;;;;;;;12.35;3.72;;;;;;;;;;4986626;28;101157;-76
2023/06/04 05:24:37;;;;;;;5.75;3.10;;;;;;;;;;4986614;28;100136;-77
2023/06/04 05:27:05;;;;;;;7.88;3.40;;;;;;;;;;4986830;28;101304;-76
2023/06/04 05:29:31;;;;;;;5.32;3.22;;;;;;;;;;4987464;28;98694;-76
2023/06/04 05:31:58;;;;;;;6.85;3.33;;;;;;;;;;4985940;28;102056;-77
2023/06/04 05:34:26;;;;;;;6.07;3.63;;;;;;;;;;4988123;28;98779;-77
2023/06/04 05:36:53;;;;;;;4.68;3.42;;;;;;;;;;4987378;28;99985;-77
2023/06/04 05:39:20;;;;;;;6.40;2.75;;;;;;;;;;4985106;28;101856;-76
2023/06/04 05:42:01;;;;;;;4.07;2.40;;;;;;;;;;4985781;28;100404;-75
2023/06/04 05:44:29;;;;;;;5.07;3.17;;;;;;;;;;4987187;28;101164;-75
2023/06/04 05:46:56;;;;;;;8.00;2.92;;;;;;;;;;5004618;28;100769;-74
2023/06/04 05:49:24;;;;;;;4.07;2.50;;;;;;;;;;4997653;28;102444;-76
2023/06/04 05:51:53;;;;;;;5.82;3.38;;;;;;;;;;4979157;28;101106;-75
2023/06/04 05:54:20;;;;;;;5.18;2.35;;;;;;;;;;4965915;28;100834;-77
2023/06/04 05:56:48;;;;;;;5.18;2.40;;;;;;;;;;4966194;28;100865;-76
2023/06/04 05:59:15;;;;;;;5.22;2.45;;;;;;;;;;4969733;28;101466;-78
2023/06/04 06:01:43;;;;;;;8.63;2.85;;;;;;;;;;4966450;28;100261;-77
2023/06/04 06:04:10;;;;;;;8.30;3.03;;;;;;;;;;4966450;28;100811;-77
2023/06/04 06:06:37;;;;;;;7.95;2.60;;;;;;;;;;4977936;28;99090;-78
2023/06/04 06:09:03;;;;;;;8.60;3.13;;;;;;;;;;4987920;28;98702;-76
2023/06/04 06:11:30;;;;;;;2.60;2.10;;;;;;;;;;4984831;28;102608;-77
2023/06/04 06:13:57;;;;;;;8.50;2.85;;;;;;;;;;4986258;28;100023;-78
2023/06/04 06:16:23;;;;;;;3.28;2.10;;;;;;;;;;4986111;28;98944;-77
2023/06/04 06:18:50;;;;;;;7.35;3.42;;;;;;;;;;4987237;28;99281;-78
2023/06/04 06:21:16;;;;;;;9.32;2.53;;;;;;;;;;4990681;28;99834;-77
2023/06/04 06:23:43;;;;;;;6.75;2.53;;;;;;;;;;4987411;28;98964;-77
2023/06/04 06:26:09;;;;;;;4.10;2.33;;;;;;;;;;4985344;28;101295;-77
2023/06/04 06:28:42;;;;;;;4.75;3.10;;;;;;;;;;4986560;28;101203;-77
2023/06/04 06:31:09;;;;;;;8.52;2.15;;;;;;;;;;4991110;28;101773;-77
2023/06/04 06:33:40;;;;;;;5.40;2.50;;;;;;;;;;4996536;28;98830;-77
2023/06/04 06:36:12;;;;;;;4.03;2.47;;;;;;;;;;4991809;28;99910;-76
2023/06/04 06:38:38;;;;;;;6.10;3.03;;;;;;;;;;4987164;28;100032;-78
2023/06/04 06:41:05;;;;;;;3.42;2.22;;;;;;;;;;4986308;28;100029;-77
2023/06/04 06:43:33;;;;;;;4.53;2.40;;;;;;;;;;4990254;28;100141;-78
2023/06/04 06:46:02;;;;;;;4.53;2.72;;;;;;;;;;4985924;28;98859;-77
2023/06/04 06:48:31;;;;;;;4.85;2.42;;;;;;;;;;4986381;28;99936;-77
2023/06/04 06:50:57;;;;;;;5.25;2.75;;;;;;;;;;4986902;28;100178;-77
2023/06/04 06:53:24;;;;;;;3.40;2.22;;;;;;;;;;4986157;28;99140;-77
2023/06/04 06:55:51;;;;;;;4.38;2.72;;;;;;;;;;4986788;28;99318;-77
2023/06/04 06:58:17;;;;;;;3.20;2.28;;;;;;;;;;4985874;28;100175;-77
2023/06/04 07:00:44;;;;;;;3.13;2.22;;;;;;;;;;4984655;28;100039;-76
2023/06/04 07:03:11;;;;;;;2.65;2.30;;;;;;;;;;4988565;28;99638;-77
2023/06/04 07:05:37;;;;;;;7.45;2.40;;;;;;;;;;4986196;28;99393;-77
2023/06/04 07:08:04;;;;;;;4.68;2.58;;;;;;;;;;4985646;28;101097;-77
2023/06/04 07:10:30;;;;;;;4.28;2.40;;;;;;;;;;4986443;28;100112;-77
2023/06/04 07:12:57;;;;;;;5.18;2.40;;;;;;;;;;4986368;28;98891;-77
2023/06/04 07:15:23;;;;;;;2.28;1.90;;;;;;;;;;4985392;28;100804;-77
2023/06/04 07:17:49;;;;;;;5.90;1.92;;;;;;;;;;4986570;28;98629;-77
2023/06/04 07:20:16;;;;;;;8.27;2.85;;;;;;;;;;4981240;28;99155;-77
2023/06/04 07:22:43;;;;;;;6.28;2.50;;;;;;;;;;4965615;28;99999;-76
2023/06/04 07:25:09;;;;;;;4.68;2.00;;;;;;;;;;4969652;28;101266;-77
2023/06/04 07:27:36;;;;;;;4.40;2.10;;;;;;;;;;4966478;28;99822;-78
2023/06/04 07:30:03;;;;;;;6.00;2.30;;;;;;;;;;4966036;28;99225;-78
2023/06/04 07:32:29;;;;;;;2.33;2.00;;;;;;;;;;4973406;28;99935;-77
2023/06/04 07:34:56;;;;;;;3.53;2.60;;;;;;;;;;4965893;28;98521;-77
2023/06/04 07:37:24;;;;;;;5.57;2.70;;;;;;;;;;4965803;28;99303;-77
2023/06/04 07:39:51;;;;;;;6.68;2.10;;;;;;;;;;4967134;28;99262;-78
2023/06/04 07:42:17;;;;;;;4.28;1.98;;;;;;;;;;4967082;28;99877;-76
2023/06/04 07:44:44;;;;;;;3.95;2.20;;;;;;;;;;4966750;28;100090;-76
2023/06/04 07:47:10;;;;;;;4.05;2.10;;;;;;;;;;4980585;28;100370;-77
2023/06/04 07:49:37;;;;;;;6.03;2.28;;;;;;;;;;4993517;28;100889;-77
2023/06/04 07:52:19;;;;;;;5.78;3.45;;;;;;;;;;4983204;28;99010;-77
2023/06/04 07:54:45;;;;;;;6.45;2.72;;;;;;;;;;4986312;28;99964;-78
2023/06/04 07:57:12;;;;;;;7.78;2.35;;;;;;;;;;4985804;28;99376;-78
2023/06/04 07:59:40;;;;;;;3.10;2.00;;;;;;;;;;4980320;28;98915;-82
2023/06/04 08:02:06;;;;;;;4.65;2.10;;;;;;;;;;4980042;28;99359;-74
2023/06/04 08:04:33;;;;;;;4.65;2.30;;;;;;;;;;4981076;28;99541;-76
2023/06/04 08:06:59;;;;;;;4.32;1.90;;;;;;;;;;4985717;28;98951;-76
2023/06/04 08:09:27;;;;;;;4.55;2.30;;;;;;;;;;4988834;28;99070;-76
2023/06/04 08:11:54;;;;;;;3.28;2.30;;;;;;;;;;4981368;28;99858;-77
2023/06/04 08:14:22;;;;;;;7.13;2.15;;;;;;;;;;4985001;28;99859;-75
2023/06/04 08:16:48;;;;;;;3.67;2.38;;;;;;;;;;4984170;28;99561;-76
2023/06/04 08:19:15;;;;;;;4.05;2.55;;;;;;;;;;4982124;28;99170;-77
2023/06/04 08:21:42;;;;;;;4.22;2.40;;;;;;;;;;4983056;28;99445;-77
2023/06/04 08:24:08;;;;;;;3.45;2.25;;;;;;;;;;4984865;28;99724;-77
2023/06/04 08:26:35;;;;;;;6.00;2.58;;;;;;;;;;4983026;28;98989;-77
2023/06/04 08:29:04;;;;;;;3.85;1.85;;;;;;;;;;4983530;28;100213;-76
2023/06/04 08:31:31;;;;;;;6.20;2.10;;;;;;;;;;4975979;28;98723;-76
2023/06/04 08:33:58;;;;;;;7.78;2.67;;;;;;;;;;4984683;28;98536;-76
2023/06/04 08:36:25;;;;;;;5.10;2.10;;;;;;;;;;4981892;28;100511;-76
2023/06/04 08:38:53;;;;;;;6.28;2.20;;;;;;;;;;4982634;28;99313;-74
2023/06/04 08:41:26;;;;;;;7.45;2.30;;;;;;;;;;4983027;28;101061;-74
2023/06/04 08:43:55;;;;;;;3.72;2.25;;;;;;;;;;4997814;28;99836;-74
2023/06/04 08:46:26;;;;;;;4.13;1.88;;;;;;;;;;4983821;28;100952;-76
2023/06/04 08:48:53;;;;;;;6.43;2.67;;;;;;;;;;4985954;28;99147;-74
2023/06/04 08:51:20;;;;;;;4.40;1.90;;;;;;;;;;4978759;28;100030;-75
2023/06/04 08:53:50;;;;;;;2.92;1.40;;;;;;;;;;4985451;28;99878;-75
2023/06/04 08:56:17;;;;;;;2.25;2.05;;;;;;;;;;4985733;28;99584;-76
2023/06/04 08:58:44;;;;;;;4.05;2.13;;;;;;;;;;4986629;28;98966;-75
2023/06/04 09:01:10;;;;;;;3.45;1.90;;;;;;;;;;4987650;28;99090;-75
2023/06/04 09:03:37;;;;;;;3.40;1.85;;;;;;;;;;4985878;28;99968;-76
2023/06/04 09:06:04;;;;;;;5.40;2.50;;;;;;;;;;4985064;28;100182;-75
2023/06/04 09:08:31;;;;;;;5.30;2.25;;;;;;;;;;4982882;28;100066;-76
2023/06/04 09:10:58;;;;;;;3.67;1.75;;;;;;;;;;4982776;28;99598;-76
2023/06/04 09:13:27;;;;;;;5.97;2.05;;;;;;;;;;4987413;28;99394;-76
2023/06/04 09:16:03;;;;;;;4.18;1.73;;;;;;;;;;4981997;28;100211;-75
2023/06/04 09:18:30;;;;;;;3.47;2.25;;;;;;;;;;4984488;28;99036;-76
2023/06/04 09:21:14;;;;;;;3.70;2.00;;;;;;;;;;4974586;28;98993;-74
2023/06/04 09:23:44;;;;;;;5.53;2.28;;;;;;;;;;5000143;28;100624;-74
2023/06/04 09:26:11;;;;;;;2.78;1.83;;;;;;;;;;5008205;28;99021;-75
2023/06/04 09:28:41;;;;;;;4.07;2.10;;;;;;;;;;5007124;28;100202;-75
2023/06/04 09:31:17;;;;;;;3.92;1.75;;;;;;;;;;4993228;28;100713;-75
2023/06/04 09:33:44;;;;;;;3.97;2.05;;;;;;;;;;4989615;28;100126;-74
2023/06/04 09:36:11;;;;;;;3.05;1.67;;;;;;;;;;5009204;28;99163;-76
2023/06/04 09:38:38;;;;;;;3.22;1.77;;;;;;;;;;4985206;28;98962;-75
2023/06/04 09:41:15;;;;;;;3.45;2.45;;;;;;;;;;4984212;28;99255;-76
2023/06/04 09:43:46;;;;;;;2.78;2.10;;;;;;;;;;4967446;28;99634;-74
2023/06/04 09:46:13;;;;;;;2.05;1.77;;;;;;;;;;4969146;28;98998;-77
2023/06/04 09:48:40;;;;;;;2.95;1.80;;;;;;;;;;4983777;28;100051;-76
2023/06/04 09:51:18;;;;;;;4.45;1.88;;;;;;;;;;4986419;28;99839;-75
2023/06/04 09:53:53;;;;;;;2.70;2.13;;;;;;;;;;4986991;28;99909;-75
2023/06/04 09:56:19;;;;;;;2.47;1.60;;;;;;;;;;4991560;28;98724;-77
2023/06/04 09:58:48;;;;;;;2.50;2.17;;;;;;;;;;4976292;28;99438;-74
2023/06/04 10:01:15;;;;;;;4.22;2.35;;;;;;;;;;4981155;28;100423;-74
2023/06/04 10:03:46;;;;;;;1.65;1.30;;;;;;;;;;4977417;28;101618;-75
2023/06/04 10:06:14;;;;;;;3.83;1.73;;;;;;;;;;4967804;28;99058;-74
2023/06/04 10:08:45;;;;;;;2.03;1.60;;;;;;;;;;4975189;28;100173;-74
2023/06/04 10:11:13;;;;;;;2.83;1.40;;;;;;;;;;4985917;28;99942;-73
2023/06/04 10:13:53;;;;;;;2.25;1.20;;;;;;;;;;4986551;28;100089;-74
2023/06/04 10:16:20;;;;;;;4.32;1.38;;;;;;;;;;4987027;28;99644;-74
2023/06/04 10:19:00;;;;;;;1.90;1.40;;;;;;;;;;4985923;28;100227;-75
2023/06/04 10:21:27;;;;;;;2.45;1.50;;;;;;;;;;4990399;28;100838;-74
2023/06/04 10:23:54;;;;;;;3.05;1.33;;;;;;;;;;4986486;28;99502;-74
2023/06/04 10:26:21;;;;;;;2.42;1.67;;;;;;;;;;4987289;28;99872;-73
2023/06/04 10:28:48;;;;;;;1.75;1.05;;;;;;;;;;4987531;28;99871;-73
2023/06/04 10:31:15;;;;;;;2.22;1.48;;;;;;;;;;4989201;28;100101;-76
2023/06/04 10:33:42;;;;;;;4.03;1.42;;;;;;;;;;4992115;28;98965;-75
2023/06/04 10:36:18;;;;;;;3.95;1.25;;;;;;;;;;4992119;28;98203;-74
2023/06/04 10:38:46;;;;;;;5.53;1.45;;;;;;;;;;4980400;28;100951;-75
2023/06/04 10:41:16;;;;;;;4.53;1.50;;;;;;;;;;4967288;28;100242;-75
2023/06/04 10:43:45;;;;;;;3.15;1.90;;;;;;;;;;4969941;28;99946;-75
2023/06/04 10:46:13;;;;;;;2.83;1.50;;;;;;;;;;4966418;28;99124;-74
2023/06/04 10:48:53;;;;;;;2.95;1.38;;;;;;;;;;4968084;28;99086;-74
2023/06/04 10:51:32;;;;;;;4.07;1.70;;;;;;;;;;4970787;28;100189;-76
2023/06/04 10:54:00;;;;;;;2.55;1.58;;;;;;;;;;4968176;28;98913;-75
2023/06/04 10:56:31;;;;;;;5.05;1.33;;;;;;;;;;4970405;28;100316;-74
2023/06/04 10:58:58;;;;;;;2.65;1.38;;;;;;;;;;4966880;28;99366;-74
2023/06/04 11:01:26;;;;;;;5.07;1.65;;;;;;;;;;4966629;28;100243;-74
2023/06/04 11:03:52;;;;;;;4.95;1.67;;;;;;;;;;4967012;28;98528;-74
2023/06/04 11:06:20;;;;;;;4.60;1.75;;;;;;;;;;4969015;28;99443;-74
2023/06/04 11:08:47;;;;;;;4.65;1.63;;;;;;;;;;4981599;28;99288;-74
2023/06/04 11:11:16;;;;;;;3.60;1.70;;;;;;;;;;5006571;28;100158;-74
2023/06/04 11:13:43;;;;;;;5.28;1.77;;;;;;;;;;4979557;28;100364;-74
2023/06/04 11:16:17;;;;;;;2.75;1.50;;;;;;;;;;4966787;28;100275;-74
2023/06/04 11:18:44;;;;;;;3.92;1.80;;;;;;;;;;4966446;28;100314;-74
2023/06/04 11:21:14;;;;;;;1.45;1.33;;;;;;;;;;4965929;28;99835;-75
2023/06/04 11:23:42;;;;;;;5.75;1.48;;;;;;;;;;4966303;28;99004;-75
2023/06/04 11:26:08;;;;;;;2.85;1.60;;;;;;;;;;4970792;28;98600;-75
2023/06/04 11:28:35;;;;;;;4.93;1.50;;;;;;;;;;4964469;28;99217;-75
2023/06/04 11:31:02;;;;;;;2.67;1.63;;;;;;;;;;4969901;28;100292;-74
2023/06/04 11:33:30;;;;;;;2.20;1.40;;;;;;;;;;4965731;28;99863;-75
2023/06/04 11:35:56;;;;;;;3.03;1.48;;;;;;;;;;4965398;28;100945;-75
2023/06/04 11:38:23;;;;;;;5.82;1.65;;;;;;;;;;4966248;28;100732;-74
2023/06/04 11:40:59;;;;;;;4.90;1.40;;;;;;;;;;4966783;28;100713;-75
2023/06/04 11:43:26;;;;;;;4.00;1.38;;;;;;;;;;4966041;28;99897;-74
2023/06/04 11:45:53;;;;;;;2.75;1.70;;;;;;;;;;4966242;28;100585;-75
2023/06/04 11:48:20;;;;;;;6.50;1.33;;;;;;;;;;4984831;28;100575;-75
2023/06/04 11:50:46;;;;;;;1.60;1.02;;;;;;;;;;4972390;28;99697;-76
2023/06/04 11:53:14;;;;;;;2.63;1.50;;;;;;;;;;4983054;28;99084;-76
2023/06/04 11:55:41;;;;;;;2.25;1.50;;;;;;;;;;4979085;28;100513;-77
2023/06/04 11:58:07;;;;;;;1.63;1.52;;;;;;;;;;4977879;28;101032;-76
2023/06/04 12:00:35;;;;;;;3.83;1.70;;;;;;;;;;4985090;28;99974;-75
2023/06/04 12:03:02;;;;;;;5.75;1.30;;;;;;;;;;4982869;28;99819;-75
2023/06/04 12:05:30;;;;;;;3.20;1.38;;;;;;;;;;4982315;28;100933;-76
2023/06/04 12:08:09;;;;;;;2.75;1.75;;;;;;;;;;4984989;28;100275;-75
2023/06/04 12:10:39;;;;;;;1.90;1.35;;;;;;;;;;4988034;28;100852;-76
2023/06/04 12:13:06;;;;;;;4.47;1.40;;;;;;;;;;4985698;28;99931;-75
2023/06/04 12:15:33;;;;;;;2.35;1.70;;;;;;;;;;4978554;28;99755;-75
2023/06/04 12:17:59;;;;;;;4.07;1.63;;;;;;;;;;4969395;28;100016;-76
2023/06/04 12:20:36;;;;;;;4.35;1.38;;;;;;;;;;4981440;28;100107;-75
2023/06/04 12:23:03;;;;;;;4.28;1.63;;;;;;;;;;4978556;28;99560;-74
2023/06/04 12:25:30;;;;;;;1.70;1.30;;;;;;;;;;4976089;28;100174;-75
2023/06/04 12:27:57;;;;;;;2.90;1.60;;;;;;;;;;4984457;28;100045;-77
2023/06/04 12:30:23;;;;;;;5.20;1.40;;;;;;;;;;4981122;28;99028;-80
2023/06/04 12:32:51;;;;;;;7.88;1.85;;;;;;;;;;4973041;28;100725;-77
2023/06/04 12:35:19;;;;;;;3.70;1.48;;;;;;;;;;4979006;28;100110;-79
2023/06/04 12:37:46;;;;;;;2.42;1.52;;;;;;;;;;4983209;28;99464;-78
2023/06/04 12:40:17;;;;;;;3.70;1.85;;;;;;;;;;4982274;28;99941;-76
2023/06/04 12:42:43;;;;;;;1.70;1.23;;;;;;;;;;4982450;28;99975;-75
2023/06/04 12:45:11;;;;;;;2.90;1.45;;;;;;;;;;4988307;28;99245;-75
2023/06/04 12:47:40;;;;;;;2.90;1.20;;;;;;;;;;4976433;28;100366;-76
2023/06/04 12:50:07;;;;;;;1.80;1.27;;;;;;;;;;4987441;28;100362;-77
2023/06/04 12:52:34;;;;;;;5.80;1.55;;;;;;;;;;4981432;28;100878;-76
2023/06/04 12:55:01;;;;;;;2.35;1.40;;;;;;;;;;4987473;28;99977;-76
2023/06/04 12:57:27;;;;;;;5.35;1.58;;;;;;;;;;4986557;28;100616;-74
2023/06/04 12:59:53;;;;;;;5.65;1.35;;;;;;;;;;4989806;28;101204;-79
2023/06/04 13:02:21;;;;;;;1.55;1.30;;;;;;;;;;4993966;28;99733;-78
2023/06/04 13:04:52;;;;;;;2.78;1.42;;;;;;;;;;4991112;28;99823;-78
2023/06/04 13:07:19;;;;;;;1.95;1.45;;;;;;;;;;4969800;28;98897;-76
2023/06/04 13:09:47;;;;;;;4.10;1.75;;;;;;;;;;4978360;28;100074;-77
2023/06/04 13:12:14;;;;;;;7.90;1.90;;;;;;;;;;4988917;28;100778;-76
2023/06/04 13:14:41;;;;;;;6.05;1.70;;;;;;;;;;4989176;28;100203;-78
2023/06/04 13:17:07;;;;;;;8.82;1.98;;;;;;;;;;4992184;28;98911;-78
2023/06/04 13:19:47;;;;;;;3.78;1.83;;;;;;;;;;4988744;28;99123;-76
2023/06/04 13:22:14;;;;;;;4.05;1.88;;;;;;;;;;4990272;28;100244;-76
2023/06/04 13:24:40;;;;;;;2.05;1.70;;;;;;;;;;4988737;28;99584;-76
2023/06/04 13:27:08;;;;;;;2.78;1.75;;;;;;;;;;4975790;28;100301;-76
2023/06/04 13:29:35;;;;;;;2.88;1.63;;;;;;;;;;4988825;28;100012;-77
2023/06/04 13:32:01;;;;;;;3.28;1.65;;;;;;;;;;4983820;28;100219;-75
2023/06/04 13:34:28;;;;;;;8.68;2.20;;;;;;;;;;4985047;28;100162;-76
2023/06/04 13:36:55;;;;;;;6.43;1.67;;;;;;;;;;4991680;28;100271;-74
2023/06/04 13:39:22;;;;;;;4.72;1.90;;;;;;;;;;4988743;28;98949;-76
2023/06/04 13:41:48;;;;;;;3.22;1.70;;;;;;;;;;4989293;28;100116;-75
2023/06/04 13:44:15;;;;;;;5.63;1.77;;;;;;;;;;4988135;28;100100;-74
2023/06/04 13:46:42;;;;;;;6.57;1.98;;;;;;;;;;4979911;28;99949;-74
2023/06/04 13:49:11;;;;;;;2.15;1.50;;;;;;;;;;4968521;28;99028;-75
2023/06/04 13:51:37;;;;;;;7.97;1.60;;;;;;;;;;4968926;28;99379;-75
2023/06/04 13:54:04;;;;;;;3.35;1.60;;;;;;;;;;4979000;28;99867;-74
2023/06/04 13:56:31;;;;;;;2.42;1.60;;;;;;;;;;4979172;28;98691;-74
2023/06/04 13:58:58;;;;;;;4.38;1.75;;;;;;;;;;4972482;28;100179;-75
2023/06/04 14:01:24;;;;;;;3.25;1.95;;;;;;;;;;4980648;28;100012;-73
2023/06/04 14:03:51;;;;;;;3.92;1.92;;;;;;;;;;4986156;28;100347;-74
2023/06/04 14:06:18;;;;;;;5.13;2.15;;;;;;;;;;4988282;28;99004;-75
2023/06/04 14:08:45;;;;;;;3.45;1.83;;;;;;;;;;4986444;28;99192;-74
2023/06/04 14:11:11;;;;;;;1.92;1.70;;;;;;;;;;4987737;28;99442;-78
2023/06/04 14:13:38;;;;;;;4.53;1.70;;;;;;;;;;4988779;28;99982;-75
2023/06/04 14:16:05;;;;;;;2.15;1.30;;;;;;;;;;4982220;28;99356;-75
2023/06/04 14:18:32;;;;;;;3.75;1.73;;;;;;;;;;4974858;28;98822;-74
2023/06/04 14:21:00;;;;;;;3.22;1.65;;;;;;;;;;4991690;28;99392;-74
2023/06/04 14:23:26;;;;;;;5.57;1.80;;;;;;;;;;4980627;28;100331;-74
2023/06/04 14:25:53;;;;;;;3.97;1.80;;;;;;;;;;4986117;28;100259;-75
2023/06/04 14:28:20;;;;;;;3.88;1.67;;;;;;;;;;4980924;28;98520;-78
2023/06/04 14:30:51;;;;;;;5.70;1.80;;;;;;;;;;4987339;28;99561;-75
2023/06/04 14:33:17;;;;;;;3.53;2.05;;;;;;;;;;4987754;28;99083;-74
2023/06/04 14:35:46;;;;;;;1.70;1.40;;;;;;;;;;4988161;28;100512;-74
2023/06/04 14:38:14;;;;;;;12.75;2.05;;;;;;;;;;4988650;28;100102;-74
2023/06/04 14:40:41;;;;;;;6.60;1.95;;;;;;;;;;4995998;28;100105;-75